Beverly, Kentucky
Current Conditions -  °F | °C
As of 1:35 AM on Saturday 20 Dec 2014 (Local Time) from KI35 Reporting Station
Broken Clouds Broken Clouds  
Wind Chill: 32°   Ceiling: 12000
Heat Index: 32°   Visibility: 10mi
Dew Point: 28°   Wind: 3mph
Humidity: 87%   Direction: 110°ESE
Pressure: 30.15"   Gusts: NA
Location:  36.94°N, 83.53°W
Report Text: KI35 200635Z AUTO 11003KT 10SM BKN120 00/M02 A3015 RMK AO1
Loading
Personal Weather Stations






























Interactive Weather Map New forecast layout! Learn more

10-Day Weather Forecast

Advertisements
Track Severe Weather on mobile